Time;durP1;ratioP1;P1;durP2;ratioP2;P2;SDS_P1;SDS_P2;PMS_P1;PMS_P2;Temp;Humidity;BMP_temperature;BMP_pressure;BME280_temperature;BME280_humidity;BME280_pressure;Samples;Min_cycle;Max_cycle;Signal;HPM_P1;HPM_P2
2021/01/09 00:01:42;;;;;;;24.05;17.02;;;;;;;-0.20;88.51;99117.19;1704098;83;21156;-67
2021/01/09 00:04:10;;;;;;;25.62;17.30;;;;;;;-0.20;88.39;99112.81;1726942;83;21184;-67
2021/01/09 00:06:40;;;;;;;24.77;17.35;;;;;;;-0.22;88.37;99109.48;1721052;83;21655;-66
2021/01/09 00:09:08;;;;;;;25.25;16.55;;;;;;;-0.22;88.55;99110.78;1712917;83;21298;-67
2021/01/09 00:11:36;;;;;;;23.30;16.35;;;;;;;-0.25;88.79;99114.85;1731159;83;21191;-66
2021/01/09 00:14:04;;;;;;;26.42;15.80;;;;;;;-0.27;89.09;99117.19;1705653;83;21167;-67
2021/01/09 00:16:31;;;;;;;25.60;16.05;;;;;;;-0.29;89.20;99118.58;1730578;83;21199;-67
2021/01/09 00:18:59;;;;;;;22.40;15.90;;;;;;;-0.33;89.48;99117.09;1699625;83;21132;-67
2021/01/09 00:21:35;;;;;;;26.05;17.50;;;;;;;-0.36;89.84;99115.97;1695753;83;21171;-67
2021/01/09 00:24:08;;;;;;;26.40;17.73;;;;;;;-0.37;90.10;99114.31;1714661;82;21325;-67
2021/01/09 00:26:37;;;;;;;28.35;18.42;;;;;;;-0.37;90.30;99114.31;1704838;83;21330;-67
2021/01/09 00:29:06;;;;;;;25.17;16.52;;;;;;;-0.39;90.64;99120.08;1732686;83;21690;-67
2021/01/09 00:31:34;;;;;;;26.17;16.90;;;;;;;-0.38;90.94;99117.00;1712975;83;21182;-67
2021/01/09 00:34:03;;;;;;;22.40;15.75;;;;;;;-0.40;90.99;99119.22;1712822;83;21191;-67
2021/01/09 00:36:30;;;;;;;23.35;15.50;;;;;;;-0.41;91.32;99111.54;1692457;83;21160;-67
2021/01/09 00:38:59;;;;;;;24.40;16.42;;;;;;;-0.45;91.44;99116.08;1717031;83;21314;-67
2021/01/09 00:41:31;;;;;;;23.95;16.82;;;;;;;-0.43;91.83;99116.82;1732869;83;21199;-67
2021/01/09 00:43:59;;;;;;;25.72;16.90;;;;;;;-0.41;91.93;99116.73;1717525;83;21317;-67
2021/01/09 00:46:27;;;;;;;26.62;17.67;;;;;;;-0.42;92.22;99116.34;1722995;83;21556;-67
2021/01/09 00:48:54;;;;;;;26.07;18.17;;;;;;;-0.42;92.27;99115.88;1702754;83;21183;-66
2021/01/09 00:51:22;;;;;;;26.48;17.30;;;;;;;-0.40;92.24;99117.09;1715783;83;21195;-67
2021/01/09 00:53:49;;;;;;;26.82;17.05;;;;;;;-0.35;92.23;99118.95;1687834;83;21301;-67
2021/01/09 00:56:17;;;;;;;26.07;17.15;;;;;;;-0.31;92.30;99112.64;1716963;83;21187;-67
2021/01/09 00:58:47;;;;;;;25.65;17.50;;;;;;;-0.30;92.21;99115.63;1715431;83;21188;-67
2021/01/09 01:01:15;;;;;;;25.20;17.48;;;;;;;-0.28;92.09;99109.86;1692636;83;21230;-67
2021/01/09 01:03:43;;;;;;;26.82;17.75;;;;;;;-0.30;91.93;99105.23;1721695;83;21204;-67
2021/01/09 01:06:12;;;;;;;25.40;16.50;;;;;;;-0.30;92.11;99102.63;1732642;83;21202;-67
2021/01/09 01:08:40;;;;;;;25.27;17.62;;;;;;;-0.30;92.22;99098.73;1711830;83;21603;-68
2021/01/09 01:11:09;;;;;;;26.17;18.05;;;;;;;-0.30;92.10;99103.06;1704336;83;21320;-67
2021/01/09 01:13:36;;;;;;;27.93;18.75;;;;;;;-0.33;92.29;99090.28;1724041;83;21199;-67
2021/01/09 01:16:05;;;;;;;25.27;17.12;;;;;;;-0.33;92.46;99100.20;1733141;83;21204;-67
2021/01/09 01:18:34;;;;;;;27.60;18.42;;;;;;;-0.34;92.61;99092.02;1666441;83;21238;-67
2021/01/09 01:21:02;;;;;;;24.75;17.20;;;;;;;-0.36;92.71;99097.78;1684805;83;21164;-67
2021/01/09 01:23:30;;;;;;;23.35;16.15;;;;;;;-0.38;92.82;99100.94;1731894;83;21313;-67
2021/01/09 01:25:58;;;;;;;26.30;17.42;;;;;;;-0.40;93.20;99093.70;1690257;83;21301;-67
2021/01/09 01:28:26;;;;;;;26.20;17.82;;;;;;;-0.41;93.45;99088.16;1706241;83;21301;-67
2021/01/09 01:30:54;;;;;;;26.17;18.77;;;;;;;-0.37;93.73;99084.44;1703642;83;21168;-67
2021/01/09 01:33:22;;;;;;;25.80;16.73;;;;;;;-0.35;93.73;99090.38;1684443;83;21156;-67
2021/01/09 01:35:50;;;;;;;24.25;17.37;;;;;;;-0.32;94.01;99091.94;1725813;83;21143;-67
2021/01/09 01:38:19;;;;;;;26.90;18.32;;;;;;;-0.31;93.88;99089.25;1706112;83;21318;-67
2021/01/09 01:40:47;;;;;;;29.30;17.87;;;;;;;-0.33;93.83;99083.31;1682510;84;21325;-68
2021/01/09 01:43:15;;;;;;;25.40;17.67;;;;;;;-0.29;93.76;99084.79;1681849;84;21152;-68
2021/01/09 01:45:43;;;;;;;24.75;17.75;;;;;;;-0.28;93.96;99082.58;1709614;83;21321;-67
2021/01/09 01:48:11;;;;;;;25.50;18.17;;;;;;;-0.27;94.07;99076.91;1708872;83;21155;-67
2021/01/09 01:50:39;;;;;;;26.87;18.10;;;;;;;-0.25;94.21;99079.77;1712466;83;21591;-67
2021/01/09 01:53:07;;;;;;;27.70;18.65;;;;;;;-0.21;93.92;99076.08;1691508;84;21330;-68
2021/01/09 01:55:36;;;;;;;26.40;17.50;;;;;;;-0.18;93.85;99074.22;1703854;83;21305;-67
2021/01/09 01:58:03;;;;;;;29.45;18.12;;;;;;;-0.16;93.85;99076.25;1713141;83;21183;-68
2021/01/09 02:00:31;;;;;;;24.45;17.57;;;;;;;-0.14;93.50;99075.22;1674688;82;21176;-67
2021/01/09 02:03:00;;;;;;;27.48;19.05;;;;;;;-0.08;93.49;99072.70;1716094;83;21175;-68
2021/01/09 02:05:39;;;;;;;23.83;16.23;;;;;;;-0.06;93.36;99068.23;1712033;83;21217;-68
2021/01/09 02:08:10;;;;;;;28.30;18.92;;;;;;;-0.09;93.14;99065.38;1717369;83;21204;-67
2021/01/09 02:10:41;;;;;;;26.50;18.60;;;;;;;-0.16;93.30;99068.45;1705637;83;21199;-67
2021/01/09 02:13:26;;;;;;;26.70;17.52;;;;;;;-0.16;93.68;99065.38;1719875;83;21583;-67
2021/01/09 02:15:54;;;;;;;26.85;18.48;;;;;;;-0.13;93.71;99061.30;1676542;84;21198;-67
2021/01/09 02:18:22;;;;;;;26.37;18.75;;;;;;;-0.13;93.63;99057.41;1705736;83;21591;-67
2021/01/09 02:20:50;;;;;;;26.07;18.73;;;;;;;-0.13;93.93;99057.41;1706837;83;21336;-67
2021/01/09 02:23:23;;;;;;;27.40;18.12;;;;;;;-0.12;93.91;99060.83;1682342;84;21350;-67
2021/01/09 02:25:51;;;;;;;28.02;19.57;;;;;;;-0.09;93.79;99053.68;1699627;84;21199;-67
2021/01/09 02:28:19;;;;;;;27.87;18.37;;;;;;;-0.08;93.61;99062.30;1701998;84;21301;-68
2021/01/09 02:30:48;;;;;;;29.55;19.52;;;;;;;-0.09;93.57;99054.98;1693544;84;21188;-68
2021/01/09 02:33:16;;;;;;;25.65;17.40;;;;;;;-0.06;93.58;99053.47;1702143;84;21193;-68
2021/01/09 02:35:43;;;;;;;28.15;19.17;;;;;;;-0.05;93.54;99052.55;1697001;84;21339;-67
2021/01/09 02:38:11;;;;;;;27.95;19.23;;;;;;;-0.06;93.36;99053.94;1712786;83;21171;-68
2021/01/09 02:40:40;;;;;;;29.90;19.25;;;;;;;-0.04;93.22;99052.08;1632634;84;21187;-67
2021/01/09 02:43:12;;;;;;;26.52;18.00;;;;;;;-0.07;93.35;99051.81;1701006;83;21360;-67
2021/01/09 02:45:42;;;;;;;27.27;18.37;;;;;;;-0.08;93.51;99051.43;1705666;83;21147;-68
2021/01/09 02:48:10;;;;;;;27.07;19.23;;;;;;;-0.10;93.70;99045.50;1724574;83;21182;-68
2021/01/09 02:50:37;;;;;;;29.57;20.60;;;;;;;-0.10;93.99;99036.88;1687844;84;21155;-67
2021/01/09 02:53:05;;;;;;;27.95;19.02;;;;;;;-0.06;94.31;99044.84;1682832;84;21317;-67
2021/01/09 02:55:33;;;;;;;30.60;19.30;;;;;;;-0.02;94.39;99043.71;1701352;83;21183;-67
2021/01/09 02:58:00;;;;;;;26.57;18.27;;;;;;;0.03;93.97;99053.37;1725577;83;21183;-67
2021/01/09 03:00:28;;;;;;;28.67;19.60;;;;;;;0.07;93.40;99054.84;1685463;83;21195;-67
2021/01/09 03:02:56;;;;;;;28.57;20.02;;;;;;;0.04;93.36;99048.55;1726663;83;21317;-68
2021/01/09 03:05:23;;;;;;;28.60;18.87;;;;;;;0.04;93.63;99055.05;1730646;83;21309;-67
2021/01/09 03:07:51;;;;;;;26.33;17.95;;;;;;;0.04;93.75;99055.49;1669306;84;21192;-67
2021/01/09 03:10:19;;;;;;;28.98;20.95;;;;;;;0.04;93.49;99052.45;1715393;83;21172;-68
2021/01/09 03:12:46;;;;;;;27.58;19.25;;;;;;;0.04;93.61;99054.19;1720234;83;21191;-67
2021/01/09 03:15:14;;;;;;;28.12;18.85;;;;;;;0.02;93.45;99045.66;1721971;83;21179;-67
2021/01/09 03:17:42;;;;;;;27.25;19.12;;;;;;;0.01;93.51;99047.43;1687320;84;21321;-67
2021/01/09 03:20:12;;;;;;;26.60;18.52;;;;;;;0.03;93.63;99044.27;1689336;84;21175;-67
2021/01/09 03:22:39;;;;;;;28.95;20.02;;;;;;;0.05;93.94;99046.77;1716581;83;21592;-67
2021/01/09 03:25:09;;;;;;;26.65;19.07;;;;;;;0.08;93.78;99048.72;1731437;83;21192;-68
2021/01/09 03:27:37;;;;;;;28.65;18.90;;;;;;;0.09;93.63;99050.37;1695202;84;21197;-67
2021/01/09 03:30:07;;;;;;;26.75;18.87;;;;;;;0.07;93.54;99044.44;1691465;84;21201;-67
2021/01/09 03:32:34;;;;;;;25.12;16.82;;;;;;;0.06;93.69;99048.45;1697711;84;21217;-67
2021/01/09 03:35:04;;;;;;;30.65;21.23;;;;;;;0.04;93.74;99045.09;1679057;84;21601;-67
2021/01/09 03:37:31;;;;;;;29.20;19.12;;;;;;;0.05;93.93;99046.77;1688250;84;21189;-67
2021/01/09 03:39:59;;;;;;;28.00;19.02;;;;;;;0.09;93.97;99052.97;1649340;84;21669;-67
2021/01/09 03:42:27;;;;;;;27.55;19.57;;;;;;;0.10;93.90;99054.66;1658020;84;21321;-67
2021/01/09 03:44:56;;;;;;;28.40;18.65;;;;;;;0.10;93.81;99048.63;1682680;84;21311;-67
2021/01/09 03:47:25;;;;;;;29.18;18.87;;;;;;;0.09;93.98;99055.56;1703150;84;21213;-67
2021/01/09 03:49:53;;;;;;;27.40;18.73;;;;;;;0.11;93.71;99051.58;1701555;84;21204;-67
2021/01/09 03:52:21;;;;;;;28.70;19.92;;;;;;;0.13;93.52;99046.67;1696895;84;21241;-67
2021/01/09 03:54:48;;;;;;;27.37;18.35;;;;;;;0.12;93.78;99047.59;1686839;84;21229;-67
2021/01/09 03:57:16;;;;;;;28.47;20.45;;;;;;;0.13;93.86;99061.41;1679823;84;21193;-67
2021/01/09 03:59:44;;;;;;;32.63;20.45;;;;;;;0.10;93.90;99065.05;1679823;84;21169;-67
2021/01/09 04:02:11;;;;;;;30.35;20.30;;;;;;;0.10;94.33;99057.25;1691524;84;21189;-67
2021/01/09 04:04:39;;;;;;;30.10;20.02;;;;;;;0.16;94.19;99065.95;1704197;84;21315;-67
2021/01/09 04:07:07;;;;;;;29.02;20.00;;;;;;;0.18;93.86;99065.39;1690415;84;21236;-67
2021/01/09 04:09:36;;;;;;;27.58;19.30;;;;;;;0.19;93.71;99060.57;1698287;84;21205;-67
2021/01/09 04:12:05;;;;;;;28.55;19.75;;;;;;;0.25;93.51;99072.83;1703444;84;21181;-67
2021/01/09 04:14:32;;;;;;;27.95;18.40;;;;;;;0.26;93.49;99066.67;1696961;84;21237;-67
2021/01/09 04:17:01;;;;;;;29.07;20.30;;;;;;;0.21;93.38;99062.22;1701643;84;21381;-68
2021/01/09 04:19:29;;;;;;;27.62;19.48;;;;;;;0.20;93.83;99067.91;1656345;84;21620;-67
2021/01/09 04:21:59;;;;;;;28.67;20.15;;;;;;;0.18;93.44;99061.49;1678589;84;21205;-67
2021/01/09 04:24:27;;;;;;;28.38;19.52;;;;;;;0.18;93.39;99057.59;1688290;84;21208;-68
2021/01/09 04:27:00;;;;;;;29.42;19.05;;;;;;;0.24;93.32;99063.34;1703218;84;21637;-67
2021/01/09 04:29:29;;;;;;;28.67;19.52;;;;;;;0.24;93.47;99074.57;1679380;84;21771;-68
2021/01/09 04:31:57;;;;;;;28.52;19.32;;;;;;;0.24;93.52;99079.77;1681439;84;21201;-67
2021/01/09 04:34:26;;;;;;;28.77;19.70;;;;;;;0.23;93.37;99078.12;1696937;84;21225;-67
2021/01/09 04:36:54;;;;;;;28.25;19.75;;;;;;;0.17;93.24;99075.91;1702293;84;21205;-67
2021/01/09 04:39:22;;;;;;;27.05;19.40;;;;;;;0.17;93.39;99069.41;1671036;84;21251;-67
2021/01/09 04:41:49;;;;;;;27.60;17.42;;;;;;;0.12;93.54;99072.28;1684846;84;22246;-67
2021/01/09 04:44:17;;;;;;;28.27;19.32;;;;;;;0.08;93.58;99072.12;1666106;84;21625;-68
2021/01/09 04:46:54;;;;;;;27.42;19.25;;;;;;;0.04;93.85;99070.65;1676094;84;21189;-67
2021/01/09 04:49:24;;;;;;;32.08;20.35;;;;;;;0.05;94.34;99074.08;1679704;84;21617;-67
2021/01/09 04:51:53;;;;;;;30.35;20.12;;;;;;;0.04;94.60;99080.19;1697698;84;21339;-67
2021/01/09 04:54:24;;;;;;;27.45;18.50;;;;;;;0.04;94.94;99082.79;1676393;84;21169;-67
2021/01/09 04:56:54;;;;;;;32.08;21.25;;;;;;;0.05;94.87;99079.27;1671197;84;21185;-67
2021/01/09 04:59:24;;;;;;;26.55;18.55;;;;;;;0.07;94.79;99079.53;1703251;84;21747;-67
2021/01/09 05:01:52;;;;;;;30.57;20.20;;;;;;;0.09;94.62;99081.57;1680844;84;21221;-67
2021/01/09 05:04:20;;;;;;;28.10;20.32;;;;;;;0.06;94.57;99083.08;1656129;84;21201;-67
2021/01/09 05:06:48;;;;;;;29.45;19.37;;;;;;;0.03;94.96;99085.87;1693207;84;21142;-67
2021/01/09 05:09:16;;;;;;;29.20;20.17;;;;;;;0.02;95.16;99089.85;1692992;84;21188;-67
2021/01/09 05:11:45;;;;;;;32.48;20.62;;;;;;;0.05;95.33;99097.47;1684648;84;21613;-67
2021/01/09 05:14:14;;;;;;;28.17;19.42;;;;;;;0.08;95.23;99098.12;1681952;84;21331;-68
2021/01/09 05:16:41;;;;;;;28.42;19.50;;;;;;;0.09;95.27;99097.17;1686713;84;21162;-68
2021/01/09 05:19:09;;;;;;;28.83;19.15;;;;;;;0.10;95.53;99107.13;1700649;84;21217;-68
2021/01/09 05:21:38;;;;;;;28.12;20.23;;;;;;;0.10;95.45;99101.93;1701467;84;21217;-68
2021/01/09 05:24:09;;;;;;;29.87;19.73;;;;;;;0.10;95.46;99102.76;1656437;84;21760;-68
2021/01/09 05:26:38;;;;;;;29.63;19.65;;;;;;;0.14;95.43;99102.92;1690170;84;21194;-68
2021/01/09 05:29:06;;;;;;;29.25;20.08;;;;;;;0.18;95.32;99113.50;1678021;84;21664;-68
2021/01/09 05:31:37;;;;;;;29.57;20.55;;;;;;;0.18;95.25;99108.30;1689152;84;21653;-68
2021/01/09 05:34:05;;;;;;;28.55;18.42;;;;;;;0.19;95.33;99112.58;1677677;84;21331;-68
2021/01/09 05:36:34;;;;;;;29.92;20.32;;;;;;;0.19;95.16;99110.45;1662063;84;21217;-68
2021/01/09 05:39:03;;;;;;;31.10;20.48;;;;;;;0.20;95.06;99108.20;1703251;84;21205;-68
2021/01/09 05:41:31;;;;;;;29.75;20.40;;;;;;;0.22;95.27;99120.65;1697439;84;21334;-68
2021/01/09 05:44:04;;;;;;;28.00;19.98;;;;;;;0.22;95.58;99121.95;1690978;84;21202;-68
2021/01/09 05:46:35;;;;;;;29.70;20.53;;;;;;;0.21;95.84;99125.94;1653240;84;21672;-68
2021/01/09 05:49:04;;;;;;;31.75;20.30;;;;;;;0.17;96.35;99130.05;1693497;84;21181;-68
2021/01/09 05:51:33;;;;;;;28.62;19.52;;;;;;;0.17;96.35;99126.63;1703569;84;21205;-68
2021/01/09 05:54:02;;;;;;;28.50;19.62;;;;;;;0.17;96.30;99124.02;1691696;84;21629;-68
2021/01/09 05:56:30;;;;;;;30.20;20.10;;;;;;;0.15;96.39;99124.11;1690369;84;21193;-68
2021/01/09 05:58:58;;;;;;;30.82;21.12;;;;;;;0.12;96.44;99130.80;1689131;84;21149;-67
2021/01/09 06:01:29;;;;;;;28.17;19.15;;;;;;;0.13;96.46;99134.22;1681223;84;21193;-68
2021/01/09 06:04:10;;;;;;;29.82;20.32;;;;;;;0.14;96.47;99138.50;1687966;84;21221;-68
2021/01/09 06:06:58;;;;;;;29.70;20.12;;;;;;;0.18;96.28;99138.68;1696121;84;21185;-68
2021/01/09 06:09:34;;;;;;;28.30;19.77;;;;;;;0.22;96.21;99135.42;1693727;84;21181;-68
2021/01/09 06:12:06;;;;;;;28.20;19.90;;;;;;;0.17;96.12;99141.75;1685227;84;21657;-68
2021/01/09 06:14:35;;;;;;;32.08;20.62;;;;;;;0.15;96.35;99144.92;1683600;84;21347;-68
2021/01/09 06:17:03;;;;;;;29.57;20.20;;;;;;;0.11;96.21;99149.95;1689457;84;21197;-68
2021/01/09 06:19:31;;;;;;;29.67;20.27;;;;;;;0.12;96.45;99145.09;1675992;84;21645;-68
2021/01/09 06:22:01;;;;;;;30.90;20.32;;;;;;;0.13;96.39;99155.88;1696740;84;21185;-68
2021/01/09 06:24:29;;;;;;;30.25;19.45;;;;;;;0.13;96.59;99151.12;1641886;84;21224;-68
2021/01/09 06:26:59;;;;;;;30.45;20.77;;;;;;;0.14;96.61;99154.94;1668629;84;21304;-68
2021/01/09 06:29:28;;;;;;;30.43;20.48;;;;;;;0.13;96.47;99157.19;1696342;84;21221;-67
2021/01/09 06:32:04;;;;;;;30.15;21.35;;;;;;;0.15;96.43;99155.77;1674102;84;21225;-68
2021/01/09 06:34:33;;;;;;;31.77;20.72;;;;;;;0.17;96.38;99165.63;1700538;84;21150;-68
2021/01/09 06:37:03;;;;;;;29.77;20.60;;;;;;;0.17;96.60;99163.86;1703222;84;21347;-67
2021/01/09 06:39:37;;;;;;;30.52;19.77;;;;;;;0.20;96.52;99168.02;1686504;84;21190;-67
2021/01/09 06:42:08;;;;;;;27.20;18.77;;;;;;;0.19;96.31;99169.80;1684358;84;21189;-67
2021/01/09 06:44:36;;;;;;;28.73;20.40;;;;;;;0.23;95.82;99173.52;1694305;84;21201;-67
2021/01/09 06:47:03;;;;;;;29.65;20.68;;;;;;;0.21;95.53;99177.95;1648882;84;21593;-68
2021/01/09 06:49:31;;;;;;;31.20;22.00;;;;;;;0.22;95.96;99172.66;1689828;84;21208;-68
2021/01/09 06:52:04;;;;;;;32.25;21.52;;;;;;;0.25;95.93;99176.86;1699374;84;21185;-67
2021/01/09 06:54:46;;;;;;;31.07;20.68;;;;;;;0.26;96.08;99174.61;1675908;84;21256;-68
2021/01/09 06:57:20;;;;;;;31.35;20.70;;;;;;;0.32;95.69;99175.08;1686026;84;21217;-68
2021/01/09 06:59:52;;;;;;;30.02;20.37;;;;;;;0.35;95.16;99176.64;1695845;84;21401;-68
2021/01/09 07:02:25;;;;;;;29.90;20.08;;;;;;;0.35;95.13;99174.04;1693082;84;21204;-68
2021/01/09 07:05:01;;;;;;;32.20;22.13;;;;;;;0.36;95.26;99185.66;1679673;84;21200;-68
2021/01/09 07:07:49;;;;;;;32.90;21.48;;;;;;;0.34;94.83;99177.59;1644357;84;21177;-68
2021/01/09 07:10:22;;;;;;;30.55;20.68;;;;;;;0.31;95.27;99186.41;1634201;84;21187;-68
2021/01/09 07:12:59;;;;;;;29.50;19.92;;;;;;;0.36;94.89;99184.36;1704761;84;21168;-67
2021/01/09 07:15:27;;;;;;;29.95;20.35;;;;;;;0.37;94.93;99187.34;1692004;84;21195;-69
2021/01/09 07:17:59;;;;;;;31.30;21.80;;;;;;;0.38;94.86;99193.37;1680844;84;21159;-67
2021/01/09 07:20:38;;;;;;;28.95;20.08;;;;;;;0.34;94.70;99184.09;1677028;84;21199;-69
2021/01/09 07:23:07;;;;;;;30.25;19.73;;;;;;;0.33;94.99;99186.31;1660688;85;21164;-67
2021/01/09 07:25:40;;;;;;;30.52;20.97;;;;;;;0.35;94.92;99190.95;1712858;83;21195;-67
2021/01/09 07:28:22;;;;;;;34.00;22.32;;;;;;;0.41;95.01;99194.46;1679359;84;21191;-68
2021/01/09 07:31:07;;;;;;;32.50;21.33;;;;;;;0.46;94.83;99193.72;1700811;83;21213;-67
2021/01/09 07:33:35;;;;;;;30.37;21.25;;;;;;;0.49;94.68;99193.53;1687613;84;22662;-68
2021/01/09 07:36:06;;;;;;;30.32;20.77;;;;;;;0.52;94.56;99199.83;1682585;84;21143;-68
2021/01/09 07:38:33;;;;;;;32.10;21.57;;;;;;;0.54;94.03;99203.20;1655852;85;21195;-68
2021/01/09 07:41:01;;;;;;;30.55;21.40;;;;;;;0.55;93.57;99195.75;1696985;83;21184;-68
2021/01/09 07:43:45;;;;;;;33.25;22.52;;;;;;;0.58;93.59;99199.94;1686977;84;21154;-69
2021/01/09 07:46:28;;;;;;;33.28;22.42;;;;;;;0.57;93.54;99196.48;1673622;84;21204;-68
2021/01/09 07:49:01;;;;;;;32.00;21.25;;;;;;;0.59;93.51;99196.39;1683782;84;21625;-68
2021/01/09 07:51:49;;;;;;;31.55;22.52;;;;;;;0.58;93.34;99199.47;1683602;84;21197;-69
2021/01/09 07:54:43;;;;;;;31.95;21.82;;;;;;;0.56;93.54;99197.43;1680921;84;21628;-69
2021/01/09 07:57:23;;;;;;;30.57;21.55;;;;;;;0.62;93.41;99201.41;1698026;84;21209;-68
2021/01/09 08:00:02;;;;;;;30.95;21.75;;;;;;;0.66;93.16;99213.77;1702100;84;21351;-69
2021/01/09 08:02:33;;;;;;;31.95;22.00;;;;;;;0.62;93.13;99210.97;1683323;84;21201;-68
2021/01/09 08:05:14;;;;;;;31.25;21.12;;;;;;;0.63;93.13;99213.48;1688355;84;21177;-68
2021/01/09 08:08:00;;;;;;;30.40;21.02;;;;;;;0.62;93.23;99214.87;1690584;84;21320;-69
2021/01/09 08:10:29;;;;;;;32.15;23.18;;;;;;;0.65;93.08;99215.98;1690185;84;21596;-68
2021/01/09 08:13:08;;;;;;;34.13;22.80;;;;;;;0.67;93.07;99210.22;1675848;84;21342;-69
2021/01/09 08:15:36;;;;;;;31.27;22.02;;;;;;;0.69;93.28;99210.95;1688159;84;21204;-69
2021/01/09 08:18:06;;;;;;;30.50;20.92;;;;;;;0.73;92.97;99209.82;1696232;84;21197;-68
2021/01/09 08:20:34;;;;;;;32.63;22.80;;;;;;;0.74;92.73;99214.11;1687661;84;21177;-68
2021/01/09 08:23:07;;;;;;;30.05;21.70;;;;;;;0.73;92.29;99212.42;1698279;84;21189;-67
2021/01/09 08:25:42;;;;;;;31.73;21.65;;;;;;;0.75;92.39;99214.02;1685353;84;21606;-67
2021/01/09 08:28:06;;;;;;;30.97;23.20;;;;;;;0.79;92.07;99204.25;1689831;84;21155;-68
2021/01/09 08:30:37;;;;;;;31.60;22.80;;;;;;;0.79;92.32;99205.55;1724126;83;21197;-69
2021/01/09 08:33:13;;;;;;;33.30;22.42;;;;;;;0.84;92.27;99208.70;1725041;83;21726;-69
2021/01/09 08:35:50;;;;;;;31.70;22.62;;;;;;;0.90;92.02;99203.09;1716303;83;21168;-69
2021/01/09 08:38:19;;;;;;;31.25;21.57;;;;;;;0.96;91.49;99203.17;1677445;84;21179;-68
2021/01/09 08:40:48;;;;;;;33.20;22.00;;;;;;;1.04;91.14;99190.47;1666343;84;22586;-69
2021/01/09 08:43:15;;;;;;;32.03;22.37;;;;;;;1.09;90.81;99191.49;1660907;85;21223;-68
2021/01/09 08:45:54;;;;;;;29.67;21.48;;;;;;;1.13;90.33;99187.75;1689647;84;21309;-69
2021/01/09 08:48:30;;;;;;;32.00;22.02;;;;;;;1.16;89.53;99191.47;1706247;83;21624;-68
2021/01/09 08:51:16;;;;;;;32.53;22.00;;;;;;;1.12;89.22;99195.18;1726515;83;21730;-69
2021/01/09 08:54:12;;;;;;;31.17;21.23;;;;;;;1.13;89.14;99186.45;1691393;84;21200;-69
2021/01/09 08:56:37;;;;;;;30.77;21.50;;;;;;;1.16;88.92;99183.66;1682848;83;21335;-69
2021/01/09 08:59:10;;;;;;;30.00;21.27;;;;;;;1.21;88.89;99190.67;1714828;83;21313;-67
2021/01/09 09:01:44;;;;;;;32.17;21.68;;;;;;;1.26;88.77;99187.78;1656007;85;21616;-68
2021/01/09 09:04:12;;;;;;;33.33;21.40;;;;;;;1.28;88.29;99189.34;1703070;83;21232;-68
2021/01/09 09:06:45;;;;;;;30.65;20.92;;;;;;;1.33;88.05;99184.67;1732569;83;21197;-68
2021/01/09 09:09:17;;;;;;;28.47;21.12;;;;;;;1.39;88.21;99187.34;1689838;84;21747;-68
2021/01/09 09:11:52;;;;;;;30.27;21.67;;;;;;;1.52;86.32;99180.84;1701552;84;21322;-68
2021/01/09 09:14:20;;;;;;;28.52;20.30;;;;;;;1.52;86.32;99180.84;1702461;84;21232;-68
2021/01/09 09:16:58;;;;;;;29.10;20.45;;;;;;;1.63;86.12;99182.26;1669631;84;21351;-70
2021/01/09 09:19:26;;;;;;;26.15;17.87;;;;;;;1.74;84.76;99184.97;1697573;84;21234;-68
2021/01/09 09:21:57;;;;;;;31.23;21.73;;;;;;;1.84;84.16;99175.22;1701514;84;21314;-68
2021/01/09 09:24:40;;;;;;;26.90;18.15;;;;;;;1.88;83.34;99177.98;1683545;84;21359;-68
2021/01/09 09:27:30;;;;;;;30.05;21.00;;;;;;;1.94;82.93;99176.25;1702423;84;21197;-68
2021/01/09 09:30:11;;;;;;;27.62;18.73;;;;;;;1.98;82.25;99176.39;1693875;84;21185;-69
2021/01/09 09:32:45;;;;;;;26.48;19.00;;;;;;;2.00;81.55;99171.93;1641984;84;21189;-68
2021/01/09 09:35:28;;;;;;;28.47;20.08;;;;;;;2.00;81.14;99174.54;1679629;84;21248;-68
2021/01/09 09:38:06;;;;;;;24.90;17.48;;;;;;;2.02;81.10;99171.36;1684445;84;21197;-68
2021/01/09 09:40:32;;;;;;;;;;;;;;;2.02;79.32;99170.05;1693014;84;21163;-69
2021/01/09 09:43:19;;;;;;;25.37;17.70;;;;;;;1.98;79.19;99172.96;1669107;84;20146;-68
2021/01/09 09:46:04;;;;;;;26.20;17.80;;;;;;;1.96;79.33;99169.63;1702341;84;21589;-68
2021/01/09 09:48:38;;;;;;;25.97;17.87;;;;;;;1.97;78.83;99157.79;1692377;84;21233;-69
2021/01/09 09:51:09;;;;;;;26.17;18.40;;;;;;;1.98;78.37;99159.44;1688760;84;21755;-69
2021/01/09 09:53:40;;;;;;;25.85;19.23;;;;;;;1.97;78.47;99159.57;1697723;84;21921;-68
2021/01/09 09:56:17;;;;;;;25.95;18.70;;;;;;;1.96;78.47;99162.63;1692950;84;21675;-68
2021/01/09 09:58:46;;;;;;;25.55;17.98;;;;;;;2.03;77.92;99160.44;1695419;84;21764;-68
2021/01/09 10:01:22;;;;;;;23.83;17.20;;;;;;;2.08;77.08;99153.14;1693234;84;21225;-68
2021/01/09 10:03:50;;;;;;;20.20;14.87;;;;;;;2.12;76.40;99152.80;1698018;84;21387;-68
2021/01/09 10:06:18;;;;;;;21.82;15.75;;;;;;;2.13;75.72;99155.79;1676065;84;21621;-68
2021/01/09 10:08:46;;;;;;;23.32;15.98;;;;;;;2.12;75.34;99156.72;1690753;84;21201;-68
2021/01/09 10:11:14;;;;;;;23.98;17.05;;;;;;;2.09;75.60;99158.22;1697764;84;21165;-67
2021/01/09 10:13:42;;;;;;;25.20;17.62;;;;;;;2.04;75.26;99164.70;1702052;84;21213;-68
2021/01/09 10:16:10;;;;;;;24.07;17.07;;;;;;;2.01;75.61;99156.63;1696902;84;21193;-68
2021/01/09 10:18:38;;;;;;;26.77;18.90;;;;;;;2.03;75.54;99160.44;1681341;84;21355;-67
2021/01/09 10:21:05;;;;;;;26.60;18.82;;;;;;;1.98;75.68;99159.44;1688319;84;21240;-69
2021/01/09 10:23:33;;;;;;;25.48;18.52;;;;;;;1.98;76.07;99156.83;1703260;84;21193;-69
2021/01/09 10:26:00;;;;;;;25.70;18.62;;;;;;;2.01;76.34;99155.80;1698343;84;21343;-69
2021/01/09 10:28:28;;;;;;;25.90;18.15;;;;;;;2.05;76.42;99157.25;1692357;84;21327;-68
2021/01/09 10:30:55;;;;;;;25.82;17.65;;;;;;;2.09;76.43;99151.70;1689345;84;21185;-68
2021/01/09 10:33:24;;;;;;;28.05;17.55;;;;;;;2.20;76.50;99148.83;1673239;84;21319;-69
2021/01/09 10:35:51;;;;;;;24.80;17.92;;;;;;;2.33;75.65;99140.49;1692903;84;21201;-69
2021/01/09 10:38:19;;;;;;;24.70;17.65;;;;;;;2.40;75.49;99147.42;1696783;84;21161;-69
2021/01/09 10:40:47;;;;;;;24.12;16.32;;;;;;;2.45;74.00;99150.08;1703344;84;21383;-69
2021/01/09 10:43:15;;;;;;;22.87;16.17;;;;;;;2.40;73.03;99148.25;1693184;84;21260;-69
2021/01/09 10:45:42;;;;;;;24.00;17.62;;;;;;;2.32;73.79;99151.89;1680856;84;21598;-69
2021/01/09 10:48:10;;;;;;;27.85;18.65;;;;;;;2.27;73.28;99146.16;1690409;84;21173;-69
2021/01/09 10:50:39;;;;;;;25.97;17.23;;;;;;;2.23;73.25;99143.41;1690884;84;21637;-68
2021/01/09 10:53:07;;;;;;;25.05;17.55;;;;;;;2.20;73.41;99147.52;1702430;84;21168;-67
2021/01/09 10:55:40;;;;;;;25.65;18.12;;;;;;;2.17;72.95;99139.91;1703230;84;21260;-68
2021/01/09 10:58:05;;;;;;;24.02;17.67;;;;;;;2.12;73.02;99146.28;1669092;84;21617;-70
2021/01/09 11:00:33;;;;;;;24.90;17.27;;;;;;;2.11;72.84;99153.77;1683813;84;21343;-69
2021/01/09 11:03:00;;;;;;;25.15;16.60;;;;;;;2.11;72.44;99148.99;1679659;84;21189;-69
2021/01/09 11:05:30;;;;;;;24.25;17.25;;;;;;;2.16;71.37;99146.08;1683981;84;21189;-69
2021/01/09 11:07:57;;;;;;;21.62;14.85;;;;;;;2.17;71.62;99143.37;1684891;84;21181;-69
2021/01/09 11:10:27;;;;;;;25.15;18.07;;;;;;;2.17;70.21;99146.42;1689989;84;21205;-70
2021/01/09 11:12:57;;;;;;;25.32;17.82;;;;;;;2.09;70.89;99150.40;1671538;84;21236;-71
2021/01/09 11:15:26;;;;;;;20.27;14.30;;;;;;;2.08;71.24;99151.36;1684100;84;21181;-70
2021/01/09 11:17:53;;;;;;;24.10;17.40;;;;;;;2.17;70.11;99149.03;1683359;84;21637;-69
2021/01/09 11:20:21;;;;;;;23.83;17.02;;;;;;;2.21;70.12;99154.39;1652911;84;21314;-68
2021/01/09 11:22:49;;;;;;;22.45;15.35;;;;;;;2.23;69.64;99149.92;1699489;84;21616;-68
2021/01/09 11:25:17;;;;;;;26.27;18.02;;;;;;;2.22;69.32;99157.38;1696373;84;21205;-70
2021/01/09 11:27:45;;;;;;;23.40;16.20;;;;;;;2.15;69.27;99158.27;1680963;84;21322;-67
2021/01/09 11:30:16;;;;;;;23.77;16.95;;;;;;;2.07;68.69;99154.89;1683705;84;21185;-68
2021/01/09 11:32:44;;;;;;;24.27;17.05;;;;;;;2.02;69.05;99150.94;1679874;84;21632;-67
2021/01/09 11:35:12;;;;;;;26.30;17.10;;;;;;;2.04;69.33;99140.78;1657955;84;21206;-71
2021/01/09 11:37:40;;;;;;;25.43;16.62;;;;;;;2.23;69.24;99151.23;1693726;84;21319;-68
2021/01/09 11:40:09;;;;;;;23.67;16.60;;;;;;;2.49;68.89;99144.98;1670736;84;21677;-69